sensor_id;sensor_type;location;lat;lon;timestamp;pressure;altitude;pressure_sealevel;temperature;humidity
48216;BME280;34005;48.844;10.098;2023-04-08T00:01:11;96850.25;;;9.03;70.34
48216;BME280;34005;48.844;10.098;2023-04-08T00:03:39;96849.97;;;8.98;70.76
48216;BME280;34005;48.844;10.098;2023-04-08T00:06:08;96848.50;;;8.95;71.15
48216;BME280;34005;48.844;10.098;2023-04-08T00:08:36;96851.75;;;8.97;70.92
48216;BME280;34005;48.844;10.098;2023-04-08T00:11:04;96854.19;;;8.99;71.00
48216;BME280;34005;48.844;10.098;2023-04-08T00:13:31;96857.75;;;8.98;70.73
48216;BME280;34005;48.844;10.098;2023-04-08T00:15:59;96849.31;;;8.96;70.81
48216;BME280;34005;48.844;10.098;2023-04-08T00:18:27;96852.41;;;8.91;70.84
48216;BME280;34005;48.844;10.098;2023-04-08T00:20:54;96854.34;;;8.89;71.04
48216;BME280;34005;48.844;10.098;2023-04-08T00:23:23;96852.56;;;8.90;71.66
48216;BME280;34005;48.844;10.098;2023-04-08T00:25:51;96858.25;;;8.93;71.84
48216;BME280;34005;48.844;10.098;2023-04-08T00:28:18;96858.09;;;8.95;71.26
48216;BME280;34005;48.844;10.098;2023-04-08T00:30:46;96855.66;;;8.93;71.13
48216;BME280;34005;48.844;10.098;2023-04-08T00:33:14;96859.25;;;8.92;71.27
48216;BME280;34005;48.844;10.098;2023-04-08T00:35:41;96848.19;;;8.90;71.41
48216;BME280;34005;48.844;10.098;2023-04-08T00:38:09;96845.75;;;8.89;71.35
48216;BME280;34005;48.844;10.098;2023-04-08T00:40:38;96851.75;;;8.89;72.28
48216;BME280;34005;48.844;10.098;2023-04-08T00:43:06;96848.84;;;8.92;71.79
48216;BME280;34005;48.844;10.098;2023-04-08T00:45:33;96842.66;;;8.93;71.69
48216;BME280;34005;48.844;10.098;2023-04-08T00:48:01;96856.66;;;8.92;71.47
48216;BME280;34005;48.844;10.098;2023-04-08T00:50:29;96844.25;;;8.94;71.87
48216;BME280;34005;48.844;10.098;2023-04-08T00:52:57;96854.06;;;8.92;71.53
48216;BME280;34005;48.844;10.098;2023-04-08T00:55:25;96852.56;;;8.90;71.72
48216;BME280;34005;48.844;10.098;2023-04-08T00:57:54;96853.72;;;8.87;71.90
48216;BME280;34005;48.844;10.098;2023-04-08T01:00:22;96858.44;;;8.83;71.71
48216;BME280;34005;48.844;10.098;2023-04-08T01:02:57;96856.66;;;8.84;72.54
48216;BME280;34005;48.844;10.098;2023-04-08T01:05:34;96859.56;;;8.89;72.97
48216;BME280;34005;48.844;10.098;2023-04-08T01:08:06;96854.50;;;8.96;72.32
48216;BME280;34005;48.844;10.098;2023-04-08T01:10:36;96849.66;;;9.01;72.66
48216;BME280;34005;48.844;10.098;2023-04-08T01:13:08;96851.56;;;9.07;72.72
48216;BME280;34005;48.844;10.098;2023-04-08T01:15:38;96851.25;;;9.10;72.48
48216;BME280;34005;48.844;10.098;2023-04-08T01:18:09;96846.50;;;9.14;72.77
48216;BME280;34005;48.844;10.098;2023-04-08T01:20:39;96858.41;;;9.16;72.28
48216;BME280;34005;48.844;10.098;2023-04-08T01:23:14;96850.41;;;9.18;71.65
48216;BME280;34005;48.844;10.098;2023-04-08T01:25:47;96851.56;;;9.15;71.54
48216;BME280;34005;48.844;10.098;2023-04-08T01:28:17;96846.19;;;9.17;71.65
48216;BME280;34005;48.844;10.098;2023-04-08T01:30:46;96845.38;;;9.16;71.03
48216;BME280;34005;48.844;10.098;2023-04-08T01:33:16;96851.25;;;9.10;71.31
48216;BME280;34005;48.844;10.098;2023-04-08T01:35:45;96843.94;;;9.05;71.56
48216;BME280;34005;48.844;10.098;2023-04-08T01:38:15;96838.75;;;9.05;72.03
48216;BME280;34005;48.844;10.098;2023-04-08T01:40:46;96842.00;;;9.07;72.12
48216;BME280;34005;48.844;10.098;2023-04-08T01:43:16;96844.91;;;9.13;71.95
48216;BME280;34005;48.844;10.098;2023-04-08T01:45:44;96839.69;;;9.13;70.96
48216;BME280;34005;48.844;10.098;2023-04-08T01:48:13;96844.25;;;9.11;71.24
48216;BME280;34005;48.844;10.098;2023-04-08T01:50:42;96842.28;;;9.13;71.86
48216;BME280;34005;48.844;10.098;2023-04-08T01:53:10;96842.28;;;9.13;71.88
48216;BME280;34005;48.844;10.098;2023-04-08T01:55:39;96838.25;;;9.10;71.33
48216;BME280;34005;48.844;10.098;2023-04-08T01:58:11;96840.03;;;9.10;72.09
48216;BME280;34005;48.844;10.098;2023-04-08T02:00:43;96838.88;;;9.12;71.84
48216;BME280;34005;48.844;10.098;2023-04-08T02:03:12;96846.69;;;9.12;70.83
48216;BME280;34005;48.844;10.098;2023-04-08T02:05:41;96847.66;;;9.11;71.26
48216;BME280;34005;48.844;10.098;2023-04-08T02:08:08;96840.66;;;9.12;71.47
48216;BME280;34005;48.844;10.098;2023-04-08T02:10:36;96845.69;;;9.13;71.40
48216;BME280;34005;48.844;10.098;2023-04-08T02:13:04;96841.28;;;9.14;71.25
48216;BME280;34005;48.844;10.098;2023-04-08T02:15:35;96848.16;;;9.15;71.42
48216;BME280;34005;48.844;10.098;2023-04-08T02:18:08;96843.75;;;9.15;72.01
48216;BME280;34005;48.844;10.098;2023-04-08T02:20:42;96851.41;;;9.17;71.78
48216;BME280;34005;48.844;10.098;2023-04-08T02:23:13;96846.50;;;9.14;71.30
48216;BME280;34005;48.844;10.098;2023-04-08T02:25:44;96849.78;;;9.07;71.16
48216;BME280;34005;48.844;10.098;2023-04-08T02:28:12;96846.84;;;9.02;71.70
48216;BME280;34005;48.844;10.098;2023-04-08T02:30:46;96848.50;;;9.03;72.70
48216;BME280;34005;48.844;10.098;2023-04-08T02:33:17;96853.38;;;8.98;71.34
48216;BME280;34005;48.844;10.098;2023-04-08T02:35:46;96848.84;;;8.92;71.50
48216;BME280;34005;48.844;10.098;2023-04-08T02:38:14;96852.41;;;8.91;71.90
48216;BME280;34005;48.844;10.098;2023-04-08T02:40:42;96848.69;;;8.85;71.51
48216;BME280;34005;48.844;10.098;2023-04-08T02:43:09;96843.31;;;8.79;71.67
48216;BME280;34005;48.844;10.098;2023-04-08T02:45:40;96842.03;;;8.75;72.56
48216;BME280;34005;48.844;10.098;2023-04-08T02:48:09;96843.66;;;8.76;72.47
48216;BME280;34005;48.844;10.098;2023-04-08T02:50:37;96845.28;;;8.77;72.48
48216;BME280;34005;48.844;10.098;2023-04-08T02:53:07;96853.25;;;8.75;72.36
48216;BME280;34005;48.844;10.098;2023-04-08T02:55:35;96847.88;;;8.69;72.12
48216;BME280;34005;48.844;10.098;2023-04-08T02:58:03;96848.19;;;8.65;72.21
48216;BME280;34005;48.844;10.098;2023-04-08T03:00:30;96846.09;;;8.61;72.48
48216;BME280;34005;48.844;10.098;2023-04-08T03:02:58;96838.78;;;8.56;72.38
48216;BME280;34005;48.844;10.098;2023-04-08T03:05:27;96840.72;;;8.54;73.03
48216;BME280;34005;48.844;10.098;2023-04-08T03:07:55;96848.53;;;8.54;72.83
48216;BME280;34005;48.844;10.098;2023-04-08T03:10:23;96845.94;;;8.54;72.88
48216;BME280;34005;48.844;10.098;2023-04-08T03:12:50;96847.06;;;8.52;72.53
48216;BME280;34005;48.844;10.098;2023-04-08T03:15:18;96847.22;;;8.50;72.85
48216;BME280;34005;48.844;10.098;2023-04-08T03:17:46;96852.63;;;8.49;72.59
48216;BME280;34005;48.844;10.098;2023-04-08T03:20:13;96852.75;;;8.47;72.80
48216;BME280;34005;48.844;10.098;2023-04-08T03:22:42;96856.00;;;8.49;72.87
48216;BME280;34005;48.844;10.098;2023-04-08T03:25:10;96849.03;;;8.50;72.88
48216;BME280;34005;48.844;10.098;2023-04-08T03:27:38;96857.63;;;8.50;72.81
48216;BME280;34005;48.844;10.098;2023-04-08T03:30:06;96861.88;;;8.51;73.33
48216;BME280;34005;48.844;10.098;2023-04-08T03:32:34;96862.53;;;8.53;73.05
48216;BME280;34005;48.844;10.098;2023-04-08T03:35:02;96865.13;;;8.53;73.09
48216;BME280;34005;48.844;10.098;2023-04-08T03:37:30;96851.94;;;8.55;73.41
48216;BME280;34005;48.844;10.098;2023-04-08T03:39:59;96857.97;;;8.55;72.79
48216;BME280;34005;48.844;10.098;2023-04-08T03:42:26;96859.59;;;8.56;72.93
48216;BME280;34005;48.844;10.098;2023-04-08T03:44:54;96858.78;;;8.56;72.79
48216;BME280;34005;48.844;10.098;2023-04-08T03:47:22;96857.13;;;8.55;72.73
48216;BME280;34005;48.844;10.098;2023-04-08T03:49:51;96869.03;;;8.57;73.11
48216;BME280;34005;48.844;10.098;2023-04-08T03:52:19;96861.22;;;8.57;73.33
48216;BME280;34005;48.844;10.098;2023-04-08T03:54:47;96858.28;;;8.60;73.22
48216;BME280;34005;48.844;10.098;2023-04-08T03:57:16;96861.53;;;8.62;73.52
48216;BME280;34005;48.844;10.098;2023-04-08T03:59:43;96866.88;;;8.61;72.81
48216;BME280;34005;48.844;10.098;2023-04-08T04:02:11;96856.97;;;8.56;72.91
48216;BME280;34005;48.844;10.098;2023-04-08T04:04:39;96862.53;;;8.53;73.24
48216;BME280;34005;48.844;10.098;2023-04-08T04:07:06;96857.63;;;8.58;73.92
48216;BME280;34005;48.844;10.098;2023-04-08T04:09:34;96862.50;;;8.61;74.04
48216;BME280;34005;48.844;10.098;2023-04-08T04:12:01;96878.09;;;8.61;73.46
48216;BME280;34005;48.844;10.098;2023-04-08T04:14:30;96873.25;;;8.58;73.57
48216;BME280;34005;48.844;10.098;2023-04-08T04:16:58;96873.72;;;8.54;73.10
48216;BME280;34005;48.844;10.098;2023-04-08T04:19:28;96876.00;;;8.57;74.25
48216;BME280;34005;48.844;10.098;2023-04-08T04:21:56;96881.19;;;8.57;73.26
48216;BME280;34005;48.844;10.098;2023-04-08T04:24:24;96881.38;;;8.55;72.84
48216;BME280;34005;48.844;10.098;2023-04-08T04:26:51;96881.69;;;8.52;73.19
48216;BME280;34005;48.844;10.098;2023-04-08T04:29:19;96877.13;;;8.54;73.69
48216;BME280;34005;48.844;10.098;2023-04-08T04:31:48;96880.22;;;8.58;73.94
48216;BME280;34005;48.844;10.098;2023-04-08T04:34:15;96890.13;;;8.62;73.35
48216;BME280;34005;48.844;10.098;2023-04-08T04:36:43;96879.75;;;8.62;73.03
48216;BME280;34005;48.844;10.098;2023-04-08T04:39:11;96887.53;;;8.62;73.68
48216;BME280;34005;48.844;10.098;2023-04-08T04:41:38;96888.19;;;8.64;73.59
48216;BME280;34005;48.844;10.098;2023-04-08T04:44:06;96890.13;;;8.62;73.40
48216;BME280;34005;48.844;10.098;2023-04-08T04:46:34;96895.03;;;8.57;72.93
48216;BME280;34005;48.844;10.098;2023-04-08T04:49:03;96889.47;;;8.52;72.98
48216;BME280;34005;48.844;10.098;2023-04-08T04:51:30;96897.13;;;8.54;73.05
48216;BME280;34005;48.844;10.098;2023-04-08T04:53:58;96892.44;;;8.57;73.51
48216;BME280;34005;48.844;10.098;2023-04-08T04:56:26;96899.25;;;8.58;73.40
48216;BME280;34005;48.844;10.098;2023-04-08T04:58:53;96902.16;;;8.55;73.07
48216;BME280;34005;48.844;10.098;2023-04-08T05:01:21;96905.06;;;8.52;72.82
48216;BME280;34005;48.844;10.098;2023-04-08T05:03:48;96905.25;;;8.51;72.82
48216;BME280;34005;48.844;10.098;2023-04-08T05:06:18;96909.81;;;8.49;72.82
48216;BME280;34005;48.844;10.098;2023-04-08T05:08:45;96910.91;;;8.46;72.79
48216;BME280;34005;48.844;10.098;2023-04-08T05:11:13;96917.59;;;8.49;73.58
48216;BME280;34005;48.844;10.098;2023-04-08T05:13:43;96915.00;;;8.49;73.06
48216;BME280;34005;48.844;10.098;2023-04-08T05:16:11;96915.16;;;8.47;72.94
48216;BME280;34005;48.844;10.098;2023-04-08T05:18:39;96913.38;;;8.48;72.94
48216;BME280;34005;48.844;10.098;2023-04-08T05:21:07;96921.31;;;8.46;72.75
48216;BME280;34005;48.844;10.098;2023-04-08T05:23:36;96919.69;;;8.45;72.96
48216;BME280;34005;48.844;10.098;2023-04-08T05:26:06;96925.06;;;8.43;73.20
48216;BME280;34005;48.844;10.098;2023-04-08T05:28:33;96925.22;;;8.42;72.80
48216;BME280;34005;48.844;10.098;2023-04-08T05:31:01;96927.16;;;8.40;73.39
48216;BME280;34005;48.844;10.098;2023-04-08T05:33:28;96926.84;;;8.43;73.86
48216;BME280;34005;48.844;10.098;2023-04-08T05:35:56;96922.97;;;8.47;73.49
48216;BME280;34005;48.844;10.098;2023-04-08T05:38:24;96928.97;;;8.48;73.44
48216;BME280;34005;48.844;10.098;2023-04-08T05:40:53;96934.00;;;8.49;73.55
48216;BME280;34005;48.844;10.098;2023-04-08T05:43:20;96939.06;;;8.51;72.75
48216;BME280;34005;48.844;10.098;2023-04-08T05:45:48;96939.88;;;8.51;73.04
48216;BME280;34005;48.844;10.098;2023-04-08T05:48:15;96937.91;;;8.53;72.91
48216;BME280;34005;48.844;10.098;2023-04-08T05:50:43;96940.34;;;8.55;73.06
48216;BME280;34005;48.844;10.098;2023-04-08T05:53:11;96940.19;;;8.56;72.28
48216;BME280;34005;48.844;10.098;2023-04-08T05:55:39;96945.25;;;8.58;72.78
48216;BME280;34005;48.844;10.098;2023-04-08T05:58:08;96944.91;;;8.61;72.19
48216;BME280;34005;48.844;10.098;2023-04-08T06:00:35;96948.31;;;8.61;72.82
48216;BME280;34005;48.844;10.098;2023-04-08T06:03:03;96944.75;;;8.62;71.73
48216;BME280;34005;48.844;10.098;2023-04-08T06:05:31;96946.53;;;8.62;71.71
48216;BME280;34005;48.844;10.098;2023-04-08T06:07:59;96953.50;;;8.61;71.32
48216;BME280;34005;48.844;10.098;2023-04-08T06:10:26;96962.63;;;8.57;71.26
48216;BME280;34005;48.844;10.098;2023-04-08T06:12:54;96964.91;;;8.60;71.76
48216;BME280;34005;48.844;10.098;2023-04-08T06:15:23;96963.75;;;8.63;71.59
48216;BME280;34005;48.844;10.098;2023-04-08T06:17:52;96964.41;;;8.65;71.09
48216;BME280;34005;48.844;10.098;2023-04-08T06:20:20;96972.69;;;8.60;70.58
48216;BME280;34005;48.844;10.098;2023-04-08T06:22:47;96967.19;;;8.55;71.06
48216;BME280;34005;48.844;10.098;2023-04-08T06:25:15;96961.13;;;8.55;71.04
48216;BME280;34005;48.844;10.098;2023-04-08T06:27:43;96963.91;;;8.53;70.81
48216;BME280;34005;48.844;10.098;2023-04-08T06:30:11;96974.00;;;8.56;71.06
48216;BME280;34005;48.844;10.098;2023-04-08T06:32:40;96961.31;;;8.61;70.71
48216;BME280;34005;48.844;10.098;2023-04-08T06:35:08;96963.94;;;8.70;70.69
48216;BME280;34005;48.844;10.098;2023-04-08T06:37:36;96964.94;;;8.77;70.29
48216;BME280;34005;48.844;10.098;2023-04-08T06:40:05;96965.09;;;8.83;70.22
48216;BME280;34005;48.844;10.098;2023-04-08T06:42:33;96964.44;;;8.90;69.98
48216;BME280;34005;48.844;10.098;2023-04-08T06:45:01;96962.19;;;8.95;69.60
48216;BME280;34005;48.844;10.098;2023-04-08T06:47:28;96977.59;;;8.96;69.21
48216;BME280;34005;48.844;10.098;2023-04-08T06:49:58;96973.06;;;8.98;69.19
48216;BME280;34005;48.844;10.098;2023-04-08T06:52:25;96970.16;;;9.01;68.60
48216;BME280;34005;48.844;10.098;2023-04-08T06:54:53;96980.56;;;9.01;68.17
48216;BME280;34005;48.844;10.098;2023-04-08T06:57:21;96981.22;;;9.03;68.03
48216;BME280;34005;48.844;10.098;2023-04-08T06:59:48;96981.53;;;9.08;68.18
48216;BME280;34005;48.844;10.098;2023-04-08T07:02:16;96987.38;;;9.11;67.18
48216;BME280;34005;48.844;10.098;2023-04-08T07:04:44;96984.44;;;9.14;67.85
48216;BME280;34005;48.844;10.098;2023-04-08T07:07:13;96986.25;;;9.13;66.88
48216;BME280;34005;48.844;10.098;2023-04-08T07:09:41;96988.19;;;9.11;67.05
48216;BME280;34005;48.844;10.098;2023-04-08T07:12:11;96984.13;;;9.08;67.39
48216;BME280;34005;48.844;10.098;2023-04-08T07:14:39;96986.38;;;9.12;67.22
48216;BME280;34005;48.844;10.098;2023-04-08T07:17:06;96984.78;;;9.19;66.95
48216;BME280;34005;48.844;10.098;2023-04-08T07:19:34;96992.91;;;9.24;66.94
48216;BME280;34005;48.844;10.098;2023-04-08T07:22:02;96990.81;;;9.27;67.00
48216;BME280;34005;48.844;10.098;2023-04-08T07:24:32;96981.84;;;9.30;66.36
48216;BME280;34005;48.844;10.098;2023-04-08T07:26:59;96981.19;;;9.36;66.40
48216;BME280;34005;48.844;10.098;2023-04-08T07:29:27;96985.09;;;9.40;65.88
48216;BME280;34005;48.844;10.098;2023-04-08T07:31:54;96993.56;;;9.42;65.70
48216;BME280;34005;48.844;10.098;2023-04-08T07:34:22;96994.19;;;9.44;64.43
48216;BME280;34005;48.844;10.098;2023-04-08T07:36:49;97000.03;;;9.46;63.52
48216;BME280;34005;48.844;10.098;2023-04-08T07:39:17;96999.38;;;9.44;63.12
48216;BME280;34005;48.844;10.098;2023-04-08T07:41:46;97001.19;;;9.44;64.03
48216;BME280;34005;48.844;10.098;2023-04-08T07:44:13;97008.03;;;9.45;63.51
48216;BME280;34005;48.844;10.098;2023-04-08T07:46:42;97003.47;;;9.47;63.90
48216;BME280;34005;48.844;10.098;2023-04-08T07:49:14;97004.28;;;9.47;64.00
48216;BME280;34005;48.844;10.098;2023-04-08T07:51:42;97015.66;;;9.46;64.88
48216;BME280;34005;48.844;10.098;2023-04-08T07:54:09;97007.53;;;9.49;64.22
48216;BME280;34005;48.844;10.098;2023-04-08T07:56:37;97013.72;;;9.48;63.44
48216;BME280;34005;48.844;10.098;2023-04-08T07:59:07;97018.75;;;9.50;62.27
48216;BME280;34005;48.844;10.098;2023-04-08T08:01:34;97012.09;;;9.56;64.00
48216;BME280;34005;48.844;10.098;2023-04-08T08:04:02;97016.63;;;9.62;62.37
48216;BME280;34005;48.844;10.098;2023-04-08T08:06:30;97012.91;;;9.64;62.95
48216;BME280;34005;48.844;10.098;2023-04-08T08:08:58;97021.50;;;9.73;61.84
48216;BME280;34005;48.844;10.098;2023-04-08T08:11:26;97023.44;;;9.79;61.99
48216;BME280;34005;48.844;10.098;2023-04-08T08:13:54;97028.16;;;9.84;60.78
48216;BME280;34005;48.844;10.098;2023-04-08T08:16:27;97028.63;;;9.87;61.15
48216;BME280;34005;48.844;10.098;2023-04-08T08:18:54;97039.03;;;9.96;61.14
48216;BME280;34005;48.844;10.098;2023-04-08T08:21:22;97032.00;;;10.04;61.73
48216;BME280;34005;48.844;10.098;2023-04-08T08:23:50;97025.47;;;10.17;60.66
48216;BME280;34005;48.844;10.098;2023-04-08T08:26:18;97023.59;;;10.25;60.40
48216;BME280;34005;48.844;10.098;2023-04-08T08:28:46;97028.97;;;10.40;59.47
48216;BME280;34005;48.844;10.098;2023-04-08T08:31:14;97027.75;;;10.59;59.71
48216;BME280;34005;48.844;10.098;2023-04-08T08:33:43;97033.50;;;10.78;58.54
48216;BME280;34005;48.844;10.098;2023-04-08T08:36:11;97028.84;;;10.96;58.16
48216;BME280;34005;48.844;10.098;2023-04-08T08:38:38;97027.75;;;11.13;57.94
48216;BME280;34005;48.844;10.098;2023-04-08T08:41:06;97036.06;;;11.32;57.33
48216;BME280;34005;48.844;10.098;2023-04-08T08:43:34;97033.94;;;11.36;56.45
48216;BME280;34005;48.844;10.098;2023-04-08T08:46:01;97041.19;;;11.25;55.87
48216;BME280;34005;48.844;10.098;2023-04-08T08:48:30;97045.84;;;11.15;56.48
48216;BME280;34005;48.844;10.098;2023-04-08T08:50:59;97040.47;;;11.08;55.94
48216;BME280;34005;48.844;10.098;2023-04-08T08:53:28;97035.97;;;11.02;56.33
48216;BME280;34005;48.844;10.098;2023-04-08T08:56:01;97042.53;;;10.98;57.39
48216;BME280;34005;48.844;10.098;2023-04-08T08:58:31;97042.56;;;10.90;56.79
48216;BME280;34005;48.844;10.098;2023-04-08T09:00:59;97049.34;;;10.99;52.30
48216;BME280;34005;48.844;10.098;2023-04-08T09:03:27;97052.44;;;11.26;50.72
48216;BME280;34005;48.844;10.098;2023-04-08T09:05:56;97047.09;;;11.42;48.88
48216;BME280;34005;48.844;10.098;2023-04-08T09:08:27;97047.31;;;11.32;47.71
48216;BME280;34005;48.844;10.098;2023-04-08T09:11:09;97057.25;;;11.14;48.57
48216;BME280;34005;48.844;10.098;2023-04-08T09:13:37;97052.31;;;10.96;50.24
48216;BME280;34005;48.844;10.098;2023-04-08T09:16:06;97055.34;;;10.85;49.10
48216;BME280;34005;48.844;10.098;2023-04-08T09:18:34;97047.59;;;10.68;49.42
48216;BME280;34005;48.844;10.098;2023-04-08T09:21:04;97049.94;;;10.55;49.57
48216;BME280;34005;48.844;10.098;2023-04-08T09:23:38;97049.31;;;10.45;48.56
48216;BME280;34005;48.844;10.098;2023-04-08T09:26:07;97042.34;;;10.37;49.40
48216;BME280;34005;48.844;10.098;2023-04-08T09:28:35;97045.78;;;10.29;49.64
48216;BME280;34005;48.844;10.098;2023-04-08T09:31:17;97056.69;;;10.25;49.12
48216;BME280;34005;48.844;10.098;2023-04-08T09:33:46;97050.84;;;10.23;49.63
48216;BME280;34005;48.844;10.098;2023-04-08T09:36:14;97053.28;;;10.24;50.66
48216;BME280;34005;48.844;10.098;2023-04-08T09:38:44;97056.88;;;10.23;50.12
48216;BME280;34005;48.844;10.098;2023-04-08T09:41:13;97056.06;;;10.23;50.34
48216;BME280;34005;48.844;10.098;2023-04-08T09:43:43;97056.56;;;10.18;50.85
48216;BME280;34005;48.844;10.098;2023-04-08T09:46:16;97067.00;;;10.18;50.73
48216;BME280;34005;48.844;10.098;2023-04-08T09:48:48;97056.56;;;10.18;51.24
48216;BME280;34005;48.844;10.098;2023-04-08T09:51:17;97062.09;;;10.23;50.36
48216;BME280;34005;48.844;10.098;2023-04-08T09:53:55;97060.81;;;10.19;51.10
48216;BME280;34005;48.844;10.098;2023-04-08T09:56:30;97061.13;;;10.16;50.12
48216;BME280;34005;48.844;10.098;2023-04-08T09:59:08;97068.66;;;10.11;49.55
48216;BME280;34005;48.844;10.098;2023-04-08T10:01:40;97068.00;;;10.09;49.92
48216;BME280;34005;48.844;10.098;2023-04-08T10:04:14;97067.34;;;10.07;48.91
48216;BME280;34005;48.844;10.098;2023-04-08T10:06:44;97066.69;;;10.05;49.27
48216;BME280;34005;48.844;10.098;2023-04-08T10:09:14;97067.19;;;10.00;49.22
48216;BME280;34005;48.844;10.098;2023-04-08T10:11:42;97070.63;;;10.01;49.66
48216;BME280;34005;48.844;10.098;2023-04-08T10:14:10;97076.81;;;10.00;50.30
48216;BME280;34005;48.844;10.098;2023-04-08T10:16:38;97076.81;;;10.00;50.39
48216;BME280;34005;48.844;10.098;2023-04-08T10:19:37;97079.75;;;9.97;50.26
48216;BME280;34005;48.844;10.098;2023-04-08T10:22:44;97071.94;;;9.97;50.47
48216;BME280;34005;48.844;10.098;2023-04-08T10:25:34;97075.84;;;9.93;50.60
48216;BME280;34005;48.844;10.098;2023-04-08T10:28:24;97071.97;;;9.88;50.97
48216;BME280;34005;48.844;10.098;2023-04-08T10:30:54;97067.72;;;9.87;51.18
48216;BME280;34005;48.844;10.098;2023-04-08T10:33:23;97073.91;;;9.86;52.11
48216;BME280;34005;48.844;10.098;2023-04-08T10:35:59;97077.19;;;9.88;52.60
48216;BME280;34005;48.844;10.098;2023-04-08T10:38:28;97074.88;;;9.94;53.15
48216;BME280;34005;48.844;10.098;2023-04-08T10:40:57;97068.66;;;9.95;52.67
48216;BME280;34005;48.844;10.098;2023-04-08T10:43:24;97075.84;;;9.93;52.12
48216;BME280;34005;48.844;10.098;2023-04-08T10:45:52;97073.41;;;9.91;52.39
48216;BME280;34005;48.844;10.098;2023-04-08T10:48:21;97069.16;;;9.90;51.49
48216;BME280;34005;48.844;10.098;2023-04-08T10:50:54;97083.34;;;9.87;51.11
48216;BME280;34005;48.844;10.098;2023-04-08T10:53:25;97082.69;;;9.85;51.07
48216;BME280;34005;48.844;10.098;2023-04-08T10:55:54;97081.25;;;9.83;51.38
48216;BME280;34005;48.844;10.098;2023-04-08T10:58:31;97073.91;;;9.78;51.46
48216;BME280;34005;48.844;10.098;2023-04-08T11:01:02;97079.13;;;9.78;51.50
48216;BME280;34005;48.844;10.098;2023-04-08T11:03:31;97075.53;;;9.79;51.55
48216;BME280;34005;48.844;10.098;2023-04-08T11:06:00;97069.66;;;9.77;51.53
48216;BME280;34005;48.844;10.098;2023-04-08T11:08:29;97071.81;;;9.74;51.56
48216;BME280;34005;48.844;10.098;2023-04-08T11:10:57;97070.50;;;9.69;51.84
48216;BME280;34005;48.844;10.098;2023-04-08T11:13:26;97069.22;;;9.65;52.35
48216;BME280;34005;48.844;10.098;2023-04-08T11:15:56;97083.38;;;9.63;52.35
48216;BME280;34005;48.844;10.098;2023-04-08T11:18:24;97081.59;;;9.63;52.21
48216;BME280;34005;48.844;10.098;2023-04-08T11:20:53;97074.91;;;9.61;52.35
48216;BME280;34005;48.844;10.098;2023-04-08T11:23:23;97076.22;;;9.57;52.50
48216;BME280;34005;48.844;10.098;2023-04-08T11:25:51;97073.94;;;9.54;52.53
48216;BME280;34005;48.844;10.098;2023-04-08T11:28:21;97079.16;;;9.54;52.83
48216;BME280;34005;48.844;10.098;2023-04-08T11:30:49;97084.19;;;9.55;52.98
48216;BME280;34005;48.844;10.098;2023-04-08T11:33:18;97088.59;;;9.55;53.13
48216;BME280;34005;48.844;10.098;2023-04-08T11:35:50;97089.88;;;9.59;53.56
48216;BME280;34005;48.844;10.098;2023-04-08T11:38:21;97092.00;;;9.63;53.60
48216;BME280;34005;48.844;10.098;2023-04-08T11:40:52;97090.53;;;9.61;53.23
48216;BME280;34005;48.844;10.098;2023-04-08T11:43:20;97090.88;;;9.58;53.38
48216;BME280;34005;48.844;10.098;2023-04-08T11:45:49;97093.78;;;9.55;53.53
48216;BME280;34005;48.844;10.098;2023-04-08T11:48:18;97092.50;;;9.51;53.70
48216;BME280;34005;48.844;10.098;2023-04-08T11:50:45;97091.50;;;9.43;53.76
48216;BME280;34005;48.844;10.098;2023-04-08T11:53:17;97104.22;;;9.38;54.22
48216;BME280;34005;48.844;10.098;2023-04-08T11:55:46;97099.66;;;9.32;54.07
48216;BME280;34005;48.844;10.098;2023-04-08T11:58:14;97092.97;;;9.30;54.83
48216;BME280;34005;48.844;10.098;2023-04-08T12:00:41;97092.78;;;9.31;54.71
48216;BME280;34005;48.844;10.098;2023-04-08T12:03:11;97091.84;;;9.32;54.70
48216;BME280;34005;48.844;10.098;2023-04-08T12:05:40;97093.16;;;9.36;54.81
48216;BME280;34005;48.844;10.098;2023-04-08T12:08:08;97090.88;;;9.41;54.81
48216;BME280;34005;48.844;10.098;2023-04-08T12:10:36;97089.41;;;9.47;55.29
48216;BME280;34005;48.844;10.098;2023-04-08T12:13:04;97094.13;;;9.52;54.59
48216;BME280;34005;48.844;10.098;2023-04-08T12:15:32;97095.28;;;9.49;54.72
48216;BME280;34005;48.844;10.098;2023-04-08T12:18:00;97099.97;;;9.45;54.85
48216;BME280;34005;48.844;10.098;2023-04-08T12:20:28;97089.91;;;9.42;54.85
48216;BME280;34005;48.844;10.098;2023-04-08T12:22:57;97094.28;;;9.42;55.38
48216;BME280;34005;48.844;10.098;2023-04-08T12:25:25;97096.72;;;9.43;55.10
48216;BME280;34005;48.844;10.098;2023-04-08T12:27:53;97083.84;;;9.42;55.32
48216;BME280;34005;48.844;10.098;2023-04-08T12:30:21;97086.97;;;9.45;55.26
48216;BME280;34005;48.844;10.098;2023-04-08T12:32:49;97086.78;;;9.55;55.21
48216;BME280;34005;48.844;10.098;2023-04-08T12:35:17;97090.38;;;9.62;55.02
48216;BME280;34005;48.844;10.098;2023-04-08T12:37:44;97096.41;;;9.63;55.79
48216;BME280;34005;48.844;10.098;2023-04-08T12:40:14;97093.47;;;9.58;55.49
48216;BME280;34005;48.844;10.098;2023-04-08T12:42:44;97104.53;;;9.52;55.45
48216;BME280;34005;48.844;10.098;2023-04-08T12:45:12;97101.59;;;9.46;55.65
48216;BME280;34005;48.844;10.098;2023-04-08T12:47:40;97103.06;;;9.41;55.86
48216;BME280;34005;48.844;10.098;2023-04-08T12:50:09;97102.56;;;9.37;56.05
48216;BME280;34005;48.844;10.098;2023-04-08T12:52:36;97102.91;;;9.34;56.34
48216;BME280;34005;48.844;10.098;2023-04-08T12:55:05;97114.94;;;9.35;56.54
48216;BME280;34005;48.844;10.098;2023-04-08T12:57:35;97103.38;;;9.38;57.17
48216;BME280;34005;48.844;10.098;2023-04-08T13:00:03;97106.63;;;9.40;56.41
48216;BME280;34005;48.844;10.098;2023-04-08T13:02:31;97100.97;;;9.36;56.35
48216;BME280;34005;48.844;10.098;2023-04-08T13:04:59;97097.69;;;9.34;56.55
48216;BME280;34005;48.844;10.098;2023-04-08T13:07:27;97095.75;;;9.36;56.72